createdAt,value
2018-10-16T00:04:19.289Z,70.00
2018-10-16T00:09:48.541Z,70.10
2018-10-16T00:15:17.816Z,70.20
2018-10-16T00:20:47.042Z,70.40
2018-10-16T00:26:16.403Z,70.40
2018-10-16T00:31:45.749Z,70.40
2018-10-16T00:37:16.021Z,70.30
2018-10-16T00:42:45.270Z,70.40
2018-10-16T00:48:14.545Z,70.50
2018-10-16T00:53:43.794Z,70.60
2018-10-16T00:59:13.073Z,70.90
2018-10-16T01:04:42.288Z,71.00
2018-10-16T01:10:12.532Z,70.80
2018-10-16T01:15:41.777Z,71.10
2018-10-16T01:21:10.988Z,71.00
2018-10-16T01:26:40.324Z,71.00
2018-10-16T01:32:09.613Z,71.00
2018-10-16T01:37:38.925Z,71.10
2018-10-16T01:43:08.145Z,71.10
2018-10-16T01:48:37.940Z,70.90
2018-10-16T01:54:07.414Z,71.30
2018-10-16T01:59:36.752Z,71.20
2018-10-16T02:05:07.167Z,71.20
2018-10-16T02:10:36.516Z,71.10
2018-10-16T02:16:05.872Z,71.00
2018-10-16T02:21:35.064Z,71.10
2018-10-16T02:27:04.356Z,71.00
2018-10-16T02:32:33.612Z,70.80
2018-10-16T02:38:02.808Z,70.90
2018-10-16T02:43:31.989Z,70.90
2018-10-16T02:49:01.329Z,70.80
2018-10-16T02:54:30.647Z,70.70
2018-10-16T03:00:01.565Z,70.80
2018-10-16T03:05:31.568Z,70.70
2018-10-16T03:11:01.032Z,70.70
2018-10-16T03:16:30.256Z,70.60
2018-10-16T03:21:59.494Z,70.60
2018-10-16T03:27:28.684Z,70.40
2018-10-16T03:32:57.992Z,70.50
2018-10-16T03:38:27.260Z,70.50
2018-10-16T03:44:01.160Z,70.30
2018-10-16T03:49:30.411Z,70.50
2018-10-16T03:54:59.750Z,70.60
2018-10-16T04:00:28.935Z,70.50
2018-10-16T04:05:58.230Z,70.60
2018-10-16T04:11:27.488Z,70.70
2018-10-16T04:16:56.861Z,70.50
2018-10-16T04:22:26.680Z,70.80
2018-10-16T04:27:55.952Z,70.80
2018-10-16T04:33:25.420Z,71.00
2018-10-16T04:38:55.763Z,71.00
2018-10-16T04:44:25.164Z,71.00
2018-10-16T04:49:54.717Z,71.00
2018-10-16T04:55:24.325Z,71.00
2018-10-16T05:00:53.668Z,71.10
2018-10-16T05:06:23.912Z,71.10
2018-10-16T05:11:54.422Z,71.10
2018-10-16T05:17:24.215Z,71.30
2018-10-16T05:22:53.876Z,71.30
2018-10-16T05:28:23.136Z,71.40
2018-10-16T05:33:52.348Z,71.30
2018-10-16T05:39:21.643Z,71.40
2018-10-16T05:44:50.824Z,71.40
2018-10-16T05:50:20.067Z,71.30
2018-10-16T05:56:01.964Z,71.50
2018-10-16T06:01:31.201Z,71.50
2018-10-16T06:07:00.517Z,71.40
2018-10-16T06:12:29.785Z,71.50
2018-10-16T06:17:59.047Z,71.60
2018-10-16T06:23:28.416Z,71.60
2018-10-16T06:28:57.753Z,71.60
2018-10-16T06:34:27.016Z,71.50
2018-10-16T06:39:56.267Z,71.40
2018-10-16T06:45:25.503Z,71.40
2018-10-16T06:50:54.842Z,71.90
2018-10-16T06:56:24.252Z,71.50
2018-10-16T07:01:53.573Z,70.00
2018-10-16T07:07:22.911Z,69.60
2018-10-16T07:12:52.236Z,69.80
2018-10-16T07:18:21.585Z,69.00
2018-10-16T07:23:50.959Z,68.50
2018-10-16T07:29:20.221Z,68.60
2018-10-16T07:34:49.490Z,67.60
2018-10-16T07:40:18.781Z,67.00
2018-10-16T07:45:48.050Z,66.60
2018-10-16T07:51:17.330Z,66.30
2018-10-16T07:56:46.628Z,66.20
2018-10-16T08:02:15.845Z,65.50
2018-10-16T08:07:45.164Z,65.10
2018-10-16T08:13:14.411Z,64.90
2018-10-16T08:18:43.668Z,64.60
2018-10-16T08:24:13.055Z,64.70
2018-10-16T08:29:43.465Z,64.30
2018-10-16T08:35:12.737Z,63.90
2018-10-16T08:40:42.067Z,63.90
2018-10-16T08:46:28.637Z,63.30
2018-10-16T08:51:59.416Z,62.70
2018-10-16T08:57:28.652Z,62.20
2018-10-16T09:02:57.906Z,62.40
2018-10-16T09:08:28.318Z,61.50
2018-10-16T09:13:57.582Z,61.00
2018-10-16T09:19:26.810Z,60.70
2018-10-16T09:24:56.106Z,60.20
2018-10-16T09:30:25.509Z,60.20
2018-10-16T09:35:54.748Z,59.60
2018-10-16T09:41:24.053Z,58.70
2018-10-16T09:46:53.332Z,58.30
2018-10-16T09:52:22.596Z,57.60
2018-10-16T09:57:51.879Z,57.20
2018-10-16T10:03:21.143Z,56.20
2018-10-16T10:08:50.356Z,55.80
2018-10-16T10:14:19.600Z,55.70
2018-10-16T10:19:48.990Z,54.90
2018-10-16T10:25:18.312Z,54.20
2018-10-16T10:30:47.557Z,54.10
2018-10-16T10:36:16.792Z,54.30
2018-10-16T10:41:46.053Z,53.70
2018-10-16T10:47:15.324Z,52.50
2018-10-16T10:52:44.584Z,52.50
2018-10-16T10:58:13.881Z,52.40
2018-10-16T11:03:43.158Z,50.60
2018-10-16T11:09:13.305Z,50.70
2018-10-16T11:14:42.571Z,50.00
2018-10-16T11:20:13.152Z,50.00
2018-10-16T11:25:42.385Z,49.30
2018-10-16T11:31:11.677Z,49.00
2018-10-16T11:36:40.940Z,48.50
2018-10-16T11:42:10.272Z,47.50
2018-10-16T11:47:39.535Z,47.20
2018-10-16T11:53:08.816Z,46.80
2018-10-16T11:58:38.110Z,45.90
2018-10-16T12:04:07.423Z,46.20
2018-10-16T12:09:36.664Z,45.80
2018-10-16T12:15:06.497Z,44.30
2018-10-16T12:20:39.943Z,43.90
2018-10-16T12:26:09.313Z,43.10
2018-10-16T12:31:38.550Z,43.60
2018-10-16T12:37:07.875Z,43.90
2018-10-16T12:42:37.098Z,43.20
2018-10-16T12:48:06.585Z,42.50
2018-10-16T12:53:35.790Z,42.40
2018-10-16T12:59:05.131Z,42.60
2018-10-16T13:04:34.440Z,41.00
2018-10-16T13:10:04.518Z,40.30
2018-10-16T13:15:34.800Z,41.10
2018-10-16T13:21:04.126Z,39.90
2018-10-16T13:26:33.341Z,39.60
2018-10-16T13:32:02.683Z,39.40
2018-10-16T13:37:32.016Z,37.80
2018-10-16T13:43:01.400Z,36.70
2018-10-16T13:48:30.608Z,35.20
2018-10-16T13:54:01.090Z,34.30
2018-10-16T13:59:30.670Z,32.10
2018-10-16T14:05:00.170Z,31.40
2018-10-16T14:10:29.337Z,31.60
2018-10-16T14:15:58.732Z,31.80
2018-10-16T14:21:28.144Z,30.90
2018-10-16T14:26:57.412Z,31.30
2018-10-16T14:32:26.652Z,30.40
2018-10-16T14:37:55.923Z,30.90
2018-10-16T14:43:25.267Z,30.20
2018-10-16T14:48:54.537Z,30.20
2018-10-16T14:54:23.846Z,30.40
2018-10-16T14:59:53.138Z,31.00
2018-10-16T15:05:22.521Z,32.70
2018-10-16T15:10:51.793Z,34.80
2018-10-16T15:16:21.090Z,36.60
2018-10-16T15:21:50.480Z,37.70
2018-10-16T15:27:19.884Z,38.50
2018-10-16T15:32:49.148Z,39.40
2018-10-16T15:38:18.407Z,40.40
2018-10-16T15:43:47.793Z,41.30
2018-10-16T15:49:17.731Z,42.00
2018-10-16T15:54:47.118Z,42.30
2018-10-16T16:00:17.528Z,43.20
2018-10-16T16:05:46.874Z,43.60
2018-10-16T16:11:16.497Z,44.60
2018-10-16T16:16:46.126Z,45.20
2018-10-16T16:22:15.757Z,45.50
2018-10-16T16:27:45.079Z,46.00
2018-10-16T16:33:14.533Z,46.60
2018-10-16T16:38:44.082Z,47.10
2018-10-16T16:44:13.592Z,47.60
2018-10-16T16:49:43.037Z,47.80
2018-10-16T16:55:14.801Z,48.20
2018-10-16T17:00:44.140Z,49.00
2018-10-16T17:06:13.839Z,49.30
2018-10-16T17:11:43.330Z,49.80
2018-10-16T17:17:12.737Z,50.50
2018-10-16T17:22:42.149Z,51.20
2018-10-16T17:28:11.488Z,51.50
2018-10-16T17:33:40.701Z,52.20
2018-10-16T17:39:10.959Z,52.40
2018-10-16T17:44:40.261Z,53.10
2018-10-16T17:50:12.735Z,53.50
2018-10-16T17:55:42.186Z,53.90
2018-10-16T18:01:11.848Z,54.30
2018-10-16T18:06:41.254Z,54.60
2018-10-16T18:12:10.749Z,55.10
2018-10-16T18:17:40.912Z,55.50
2018-10-16T18:23:10.333Z,55.90
2018-10-16T18:28:39.729Z,56.40
2018-10-16T18:34:09.289Z,56.60
2018-10-16T18:39:38.627Z,56.80
2018-10-16T18:45:09.220Z,57.20
2018-10-16T18:50:38.784Z,57.70
2018-10-16T18:56:08.198Z,58.00
2018-10-16T19:01:37.466Z,58.30
2018-10-16T19:07:08.000Z,58.50
2018-10-16T19:12:41.169Z,58.80
2018-10-16T19:18:10.860Z,59.00
2018-10-16T19:23:40.213Z,59.40
2018-10-16T19:29:09.501Z,59.70
2018-10-16T19:34:38.799Z,60.00
2018-10-16T19:40:08.260Z,60.30
2018-10-16T19:45:37.541Z,60.70
2018-10-16T19:51:07.124Z,61.50
2018-10-16T19:56:36.574Z,61.40
2018-10-16T20:02:07.048Z,61.70
2018-10-16T20:07:36.482Z,61.80
2018-10-16T20:13:05.932Z,62.10
2018-10-16T20:18:35.348Z,62.50
2018-10-16T20:24:05.059Z,62.70
2018-10-16T20:29:34.296Z,63.00
2018-10-16T20:35:03.886Z,63.30
2018-10-16T20:40:33.228Z,63.50
2018-10-16T20:46:02.512Z,63.70
2018-10-16T20:51:31.793Z,63.90
2018-10-16T20:57:01.125Z,64.00
2018-10-16T21:02:30.578Z,64.30
2018-10-16T21:07:59.858Z,64.40
2018-10-16T21:13:29.202Z,64.60
2018-10-16T21:18:58.526Z,64.60
2018-10-16T21:24:27.820Z,65.00
2018-10-16T21:29:57.464Z,65.10
2018-10-16T21:35:26.690Z,65.40
2018-10-16T21:40:56.030Z,65.60
2018-10-16T21:46:25.278Z,66.30
2018-10-16T21:51:54.549Z,65.70
2018-10-16T21:57:23.876Z,65.90
2018-10-16T22:02:53.213Z,66.00
2018-10-16T22:08:22.533Z,66.10
2018-10-16T22:13:51.849Z,66.20
2018-10-16T22:19:21.149Z,67.10
2018-10-16T22:24:50.539Z,66.40
2018-10-16T22:30:19.803Z,66.50
2018-10-16T22:35:49.021Z,66.50
2018-10-16T22:41:18.366Z,66.70
2018-10-16T22:46:47.755Z,66.80
2018-10-16T22:52:16.996Z,67.00
2018-10-16T22:57:46.229Z,66.90
2018-10-16T23:03:15.596Z,67.20
2018-10-16T23:08:44.873Z,67.20
2018-10-16T23:14:14.227Z,67.20
2018-10-16T23:19:43.489Z,67.30
2018-10-16T23:25:12.818Z,67.40
2018-10-16T23:30:42.041Z,67.50
2018-10-16T23:36:11.384Z,67.70
2018-10-16T23:41:41.485Z,67.70
2018-10-16T23:47:10.807Z,67.90
2018-10-16T23:52:39.992Z,68.90
2018-10-16T23:58:09.231Z,69.00
